CheckWX is a tool to help pilots better visualize weather data.  It is not intended as a substitute for an official pre-flight weather briefing.

22:32:32 UTC

KELN METAR
Bowers Field Airport
Ellensburg, Washington, USA
Current

40 mins ago

KELN 022153Z AUTO 33019G26KT 10SM CLR 22/05 A2994 RMK AO2 PK WND 32028/2122 SLP132 T02170050
Observed
Jul-2 @ 21:53 UTC
Wind
  • 330° at 19 KTS
  • Gusting to 26 KTS
Visibility
10 SM
Flight Rules
VFR
Cloud Levels
  • Clear skies
Temperature
22°C / 72°F
Dewpoint
C / 41°F
Humidity
33%
Altimeter
29.94" Hg
Pressure
1013.92 hPa
Previous

2 hours ago

KELN 022053Z AUTO 32016G24KT 10SM CLR 21/06 A2994 RMK AO2 PK WND 31027/2022 SLP131 T02060056 56002
Observed
Jul-2 @ 20:53 UTC
Wind
  • 320° at 16 KTS
  • Gusting to 24 KTS
Visibility
10 SM
Flight Rules
VFR
Cloud Levels
  • Clear skies
Temperature
21°C / 70°F
Dewpoint
C / 43°F
Humidity
38%
Altimeter
29.94" Hg
Pressure
1013.92 hPa
Previous

3 hours ago

KELN 021953Z AUTO 31020G27KT 10SM CLR 19/06 A2994 RMK AO2 PK WND 30029/1859 SLP132 T01940061
Observed
Jul-2 @ 19:53 UTC
Wind
  • 310° at 20 KTS
  • Gusting to 27 KTS
Visibility
10 SM
Flight Rules
VFR
Cloud Levels
  • Clear skies
Temperature
19°C / 66°F
Dewpoint
C / 43°F
Humidity
43%
Altimeter
29.94" Hg
Pressure
1013.92 hPa